createdAt,value
2023-03-20T00:01:56.809Z,9469.97363
2023-03-20T00:16:59.064Z,5585.11621
2023-03-20T00:32:01.355Z,3529.84424
2023-03-20T00:47:03.745Z,3223.01147
2023-03-20T01:02:06.042Z,2595.39917
2023-03-20T01:17:08.408Z,1767.45789
2023-03-20T01:32:10.750Z,1002.91193
2023-03-20T01:47:13.079Z,439.96262
2023-03-20T02:02:15.346Z,122.98667
2023-03-20T02:17:17.563Z,15.21485
2023-03-20T02:32:19.776Z,1.2679
2023-03-20T02:47:22.186Z,0
2023-03-20T03:02:24.429Z,0
2023-03-20T03:17:26.662Z,0
2023-03-20T03:32:28.871Z,0
2023-03-20T03:47:31.103Z,0
2023-03-20T04:02:33.352Z,0
2023-03-20T04:17:35.597Z,0
2023-03-20T04:32:37.910Z,0
2023-03-20T04:47:40.387Z,0
2023-03-20T05:02:42.698Z,0
2023-03-20T05:17:44.974Z,0
2023-03-20T05:32:47.327Z,0
2023-03-20T05:47:49.621Z,0
2023-03-20T06:02:51.916Z,0
2023-03-20T06:17:54.265Z,0
2023-03-20T06:32:56.580Z,0
2023-03-20T06:47:58.806Z,0
2023-03-20T07:03:02.277Z,0
2023-03-20T07:18:04.620Z,0
2023-03-20T07:33:07.001Z,0
2023-03-20T07:48:09.398Z,0
2023-03-20T08:03:11.729Z,0
2023-03-20T08:18:14.001Z,0
2023-03-20T08:33:16.296Z,0
2023-03-20T08:48:18.560Z,0
2023-03-20T09:03:21.181Z,0
2023-03-20T09:18:23.747Z,0
2023-03-20T09:33:26.021Z,0
2023-03-20T09:48:28.341Z,0
2023-03-20T10:03:30.622Z,0
2023-03-20T10:18:32.913Z,0
2023-03-20T10:33:35.094Z,0
2023-03-20T10:48:37.348Z,0
2023-03-20T11:03:39.651Z,0
2023-03-20T11:18:41.983Z,0
2023-03-20T11:33:44.438Z,0
2023-03-20T11:48:46.769Z,0
2023-03-20T12:03:49.204Z,0
2023-03-20T12:18:51.442Z,0
2023-03-20T12:33:53.656Z,0
2023-03-20T12:48:56.128Z,0
2023-03-20T13:03:58.407Z,0
2023-03-20T13:19:00.698Z,0
2023-03-20T13:34:02.943Z,5.07162
2023-03-20T13:49:05.179Z,65.931
2023-03-20T14:04:07.513Z,263.724
2023-03-20T14:19:12.843Z,666.91742
2023-03-20T14:34:15.583Z,1326.22742
2023-03-20T14:49:17.816Z,1970.32251
2023-03-20T15:04:20.053Z,2687.95605
2023-03-20T15:19:22.244Z,3773.28174
2023-03-20T15:34:24.477Z,5110.92041
2023-03-20T15:49:26.877Z,6844.14453
2023-03-20T16:04:29.155Z,8842.36133
2023-03-20T16:19:31.421Z,12301.20312
2023-03-20T16:34:33.677Z,9368.54102
2023-03-20T16:49:35.893Z,7606.15479
2023-03-20T17:04:38.251Z,6572.81348
2023-03-20T17:19:40.693Z,7551.63525
2023-03-20T17:34:42.943Z,8033.43848
2023-03-20T17:49:45.399Z,7346.23486
2023-03-20T18:04:47.757Z,7738.01709
2023-03-20T18:19:50.049Z,7530.08057
2023-03-20T18:34:52.466Z,8200.80176
2023-03-20T18:49:54.752Z,9333.04004
2023-03-20T19:04:56.988Z,9530.83301
2023-03-20T19:19:59.316Z,9032.54688
2023-03-20T19:35:46.966Z,9056.63672
2023-03-20T19:50:56.746Z,9849.07715
2023-03-20T20:05:58.976Z,9762.85938
2023-03-20T20:37:32.223Z,8705.42773
2023-03-20T20:52:54.060Z,8228.69531
2023-03-20T21:07:56.304Z,8590.04785
2023-03-20T21:22:58.655Z,7885.09375
2023-03-20T21:54:29.594Z,7333.55566
2023-03-20T22:10:55.817Z,6859.35938
2023-03-20T22:42:40.409Z,7291.71484
2023-03-20T22:58:05.836Z,6747.78418
2023-03-20T23:13:09.484Z,5705.56689
2023-03-20T23:28:11.781Z,5884.3418
2023-03-20T23:43:14.082Z,5435.50342
2023-03-20T23:58:16.380Z,6144.26172
